sensor_id;sensor_type;location;lat;lon;timestamp;pressure;altitude;pressure_sealevel;temperature;humidity
45525;BME280;31437;58.350;13.828;2023-03-09T00:00:09;99390.28;;;-9.69;100.00
45525;BME280;31437;58.350;13.828;2023-03-09T00:02:36;99386.75;;;-9.79;100.00
45525;BME280;31437;58.350;13.828;2023-03-09T00:05:02;99394.34;;;-9.82;100.00
45525;BME280;31437;58.350;13.828;2023-03-09T00:07:28;99389.19;;;-9.87;100.00
45525;BME280;31437;58.350;13.828;2023-03-09T00:09:56;99389.09;;;-9.91;100.00
45525;BME280;31437;58.350;13.828;2023-03-09T00:12:21;99386.47;;;-9.97;100.00
45525;BME280;31437;58.350;13.828;2023-03-09T00:14:50;99382.94;;;-10.07;100.00
45525;BME280;31437;58.350;13.828;2023-03-09T00:17:15;99374.34;;;-10.17;100.00
45525;BME280;31437;58.350;13.828;2023-03-09T00:19:41;99353.69;;;-10.40;100.00
45525;BME280;31437;58.350;13.828;2023-03-09T00:22:06;99369.06;;;-10.32;100.00
45525;BME280;31437;58.350;13.828;2023-03-09T00:24:31;99366.38;;;-10.40;100.00
45525;BME280;31437;58.350;13.828;2023-03-09T00:26:58;99369.72;;;-10.42;100.00
45525;BME280;31437;58.350;13.828;2023-03-09T00:29:24;99368.97;;;-10.37;100.00
45525;BME280;31437;58.350;13.828;2023-03-09T00:31:50;99371.66;;;-10.27;100.00
45525;BME280;31437;58.350;13.828;2023-03-09T00:34:15;99368.47;;;-10.13;100.00
45525;BME280;31437;58.350;13.828;2023-03-09T00:36:41;99362.78;;;-9.99;100.00
45525;BME280;31437;58.350;13.828;2023-03-09T00:39:06;99367.22;;;-9.85;100.00
45525;BME280;31437;58.350;13.828;2023-03-09T00:41:32;99365.69;;;-9.72;100.00
45525;BME280;31437;58.350;13.828;2023-03-09T00:43:58;99372.63;;;-9.62;100.00
45525;BME280;31437;58.350;13.828;2023-03-09T00:46:24;99367.56;;;-9.60;100.00
45525;BME280;31437;58.350;13.828;2023-03-09T00:48:49;99371.81;;;-9.57;100.00
45525;BME280;31437;58.350;13.828;2023-03-09T00:51:15;99371.81;;;-9.56;100.00
45525;BME280;31437;58.350;13.828;2023-03-09T00:53:40;99368.53;;;-9.50;100.00
45525;BME280;31437;58.350;13.828;2023-03-09T00:56:06;99369.44;;;-9.47;100.00
45525;BME280;31437;58.350;13.828;2023-03-09T00:58:32;99364.44;;;-9.41;100.00
45525;BME280;31437;58.350;13.828;2023-03-09T01:00:58;99360.22;;;-9.39;100.00
45525;BME280;31437;58.350;13.828;2023-03-09T01:03:23;99363.66;;;-9.33;100.00
45525;BME280;31437;58.350;13.828;2023-03-09T01:05:48;99363.81;;;-9.23;100.00
45525;BME280;31437;58.350;13.828;2023-03-09T01:08:14;99362.13;;;-9.21;100.00
45525;BME280;31437;58.350;13.828;2023-03-09T01:10:40;99360.44;;;-9.22;100.00
45525;BME280;31437;58.350;13.828;2023-03-09T01:13:05;99358.75;;;-9.20;100.00
45525;BME280;31437;58.350;13.828;2023-03-09T01:15:31;99357.91;;;-9.20;100.00
45525;BME280;31437;58.350;13.828;2023-03-09T01:17:56;99357.03;;;-9.22;100.00
45525;BME280;31437;58.350;13.828;2023-03-09T01:20:21;99351.97;;;-9.21;100.00
45525;BME280;31437;58.350;13.828;2023-03-09T01:22:47;99355.34;;;-9.23;100.00
45525;BME280;31437;58.350;13.828;2023-03-09T01:25:12;99346.84;;;-9.24;100.00
45525;BME280;31437;58.350;13.828;2023-03-09T01:27:37;99357.00;;;-9.25;100.00
45525;BME280;31437;58.350;13.828;2023-03-09T01:30:03;99351.03;;;-9.29;100.00
45525;BME280;31437;58.350;13.828;2023-03-09T01:32:28;99343.38;;;-9.30;100.00
45525;BME280;31437;58.350;13.828;2023-03-09T01:34:54;99340.81;;;-9.33;100.00
45525;BME280;31437;58.350;13.828;2023-03-09T01:37:19;99341.66;;;-9.33;100.00
45525;BME280;31437;58.350;13.828;2023-03-09T01:39:45;99337.41;;;-9.34;100.00
45525;BME280;31437;58.350;13.828;2023-03-09T01:42:10;99339.03;;;-9.39;100.00
45525;BME280;31437;58.350;13.828;2023-03-09T01:44:35;99337.31;;;-9.42;100.00
45525;BME280;31437;58.350;13.828;2023-03-09T01:47:01;99336.50;;;-9.41;100.00
45525;BME280;31437;58.350;13.828;2023-03-09T01:52:06;99337.31;;;-9.43;100.00
45525;BME280;31437;58.350;13.828;2023-03-09T01:54:56;99327.16;;;-9.43;100.00
45525;BME280;31437;58.350;13.828;2023-03-09T01:57:23;99323.75;;;-9.42;100.00
45525;BME280;31437;58.350;13.828;2023-03-09T01:59:51;99315.31;;;-9.43;100.00
45525;BME280;31437;58.350;13.828;2023-03-09T02:02:17;99312.81;;;-9.38;100.00
45525;BME280;31437;58.350;13.828;2023-03-09T02:04:44;99311.97;;;-9.35;100.00
45525;BME280;31437;58.350;13.828;2023-03-09T02:07:11;99315.47;;;-9.29;100.00
45525;BME280;31437;58.350;13.828;2023-03-09T02:09:59;99313.81;;;-9.25;100.00
45525;BME280;31437;58.350;13.828;2023-03-09T02:12:23;99314.66;;;-9.26;100.00
45525;BME280;31437;58.350;13.828;2023-03-09T02:14:49;99303.59;;;-9.30;100.00
45525;BME280;31437;58.350;13.828;2023-03-09T02:17:15;99311.22;;;-9.31;100.00
45525;BME280;31437;58.350;13.828;2023-03-09T02:22:36;99298.44;;;-9.36;100.00
45525;BME280;31437;58.350;13.828;2023-03-09T02:25:11;99297.53;;;-9.41;100.00
45525;BME280;31437;58.350;13.828;2023-03-09T02:27:39;99296.66;;;-9.43;100.00
45525;BME280;31437;58.350;13.828;2023-03-09T02:30:05;99300.91;;;-9.44;100.00
45525;BME280;31437;58.350;13.828;2023-03-09T02:32:32;99303.41;;;-9.45;100.00
45525;BME280;31437;58.350;13.828;2023-03-09T02:34:57;99295.81;;;-9.44;100.00
45525;BME280;31437;58.350;13.828;2023-03-09T02:37:30;99295.78;;;-9.45;100.00
45525;BME280;31437;58.350;13.828;2023-03-09T02:40:21;99292.34;;;-9.50;100.00
45525;BME280;31437;58.350;13.828;2023-03-09T02:42:44;99287.22;;;-9.53;100.00
45525;BME280;31437;58.350;13.828;2023-03-09T02:45:10;99285.53;;;-9.53;100.00
45525;BME280;31437;58.350;13.828;2023-03-09T02:47:36;99285.50;;;-9.56;100.00
45525;BME280;31437;58.350;13.828;2023-03-09T02:50:04;99273.66;;;-9.57;100.00
45525;BME280;31437;58.350;13.828;2023-03-09T02:52:29;99283.91;;;-9.49;100.00
45525;BME280;31437;58.350;13.828;2023-03-09T02:54:54;99288.97;;;-9.48;100.00
45525;BME280;31437;58.350;13.828;2023-03-09T02:57:20;99279.59;;;-9.55;100.00
45525;BME280;31437;58.350;13.828;2023-03-09T02:59:45;99277.97;;;-9.50;100.00
45525;BME280;31437;58.350;13.828;2023-03-09T03:02:10;99277.03;;;-9.56;100.00
45525;BME280;31437;58.350;13.828;2023-03-09T03:04:36;99271.88;;;-9.63;100.00
45525;BME280;31437;58.350;13.828;2023-03-09T03:07:01;99242.84;;;-9.85;100.00
45525;BME280;31437;58.350;13.828;2023-03-09T03:09:26;99268.38;;;-9.72;100.00
45525;BME280;31437;58.350;13.828;2023-03-09T03:11:51;99270.81;;;-9.81;100.00
45525;BME280;31437;58.350;13.828;2023-03-09T03:14:17;99268.19;;;-9.86;100.00
45525;BME280;31437;58.350;13.828;2023-03-09T03:16:42;99267.31;;;-9.90;100.00
45525;BME280;31437;58.350;13.828;2023-03-09T03:19:07;99270.69;;;-9.91;100.00
45525;BME280;31437;58.350;13.828;2023-03-09T03:21:33;99275.69;;;-9.97;100.00
45525;BME280;31437;58.350;13.828;2023-03-09T03:23:58;99282.47;;;-9.96;100.00
45525;BME280;31437;58.350;13.828;2023-03-09T03:26:24;99282.41;;;-9.99;100.00
45525;BME280;31437;58.350;13.828;2023-03-09T03:28:50;99278.16;;;-10.01;100.00
45525;BME280;31437;58.350;13.828;2023-03-09T03:31:15;99287.50;;;-9.99;100.00
45525;BME280;31437;58.350;13.828;2023-03-09T03:33:41;99285.00;;;-9.96;100.00
45525;BME280;31437;58.350;13.828;2023-03-09T03:36:06;99280.84;;;-9.91;100.00
45525;BME280;31437;58.350;13.828;2023-03-09T03:38:31;99278.34;;;-9.86;100.00
45525;BME280;31437;58.350;13.828;2023-03-09T03:40:57;99285.22;;;-9.79;100.00
45525;BME280;31437;58.350;13.828;2023-03-09T03:43:22;99283.63;;;-9.72;100.00
45525;BME280;31437;58.350;13.828;2023-03-09T03:45:47;99285.34;;;-9.68;100.00
45525;BME280;31437;58.350;13.828;2023-03-09T03:48:13;99281.16;;;-9.65;100.00
45525;BME280;31437;58.350;13.828;2023-03-09T03:50:38;99271.91;;;-9.60;100.00
45525;BME280;31437;58.350;13.828;2023-03-09T03:53:03;99274.53;;;-9.53;100.00
45525;BME280;31437;58.350;13.828;2023-03-09T03:55:29;99277.13;;;-9.47;100.00
45525;BME280;31437;58.350;13.828;2023-03-09T03:57:54;99272.09;;;-9.46;100.00
45525;BME280;31437;58.350;13.828;2023-03-09T04:00:19;99275.53;;;-9.41;100.00
45525;BME280;31437;58.350;13.828;2023-03-09T04:02:45;99277.25;;;-9.40;100.00
45525;BME280;31437;58.350;13.828;2023-03-09T04:05:10;99276.44;;;-9.34;100.00
45525;BME280;31437;58.350;13.828;2023-03-09T04:07:35;99269.69;;;-9.33;100.00
45525;BME280;31437;58.350;13.828;2023-03-09T04:10:01;99271.38;;;-9.32;100.00
45525;BME280;31437;58.350;13.828;2023-03-09T04:12:26;99269.78;;;-9.26;100.00
45525;BME280;31437;58.350;13.828;2023-03-09T04:14:51;99271.50;;;-9.23;100.00
45525;BME280;31437;58.350;13.828;2023-03-09T04:17:17;99276.63;;;-9.20;100.00
45525;BME280;31437;58.350;13.828;2023-03-09T04:19:42;99273.31;;;-9.11;100.00
45525;BME280;31437;58.350;13.828;2023-03-09T04:22:08;99281.00;;;-9.05;100.00
45525;BME280;31437;58.350;13.828;2023-03-09T04:24:33;99275.09;;;-9.01;100.00
45525;BME280;31437;58.350;13.828;2023-03-09T04:26:59;99271.78;;;-8.96;100.00
45525;BME280;31437;58.350;13.828;2023-03-09T04:29:24;99274.34;;;-8.93;100.00
45525;BME280;31437;58.350;13.828;2023-03-09T04:31:50;99272.66;;;-8.94;100.00
45525;BME280;31437;58.350;13.828;2023-03-09T04:34:15;99270.06;;;-8.97;100.00
45525;BME280;31437;58.350;13.828;2023-03-09T04:36:40;99267.50;;;-8.98;100.00
45525;BME280;31437;58.350;13.828;2023-03-09T04:39:06;99260.72;;;-8.99;100.00
45525;BME280;31437;58.350;13.828;2023-03-09T04:41:31;99263.22;;;-9.04;100.00
45525;BME280;31437;58.350;13.828;2023-03-09T04:43:56;99256.41;;;-9.06;100.00
45525;BME280;31437;58.350;13.828;2023-03-09T04:46:22;99255.56;;;-9.08;100.00
45525;BME280;31437;58.350;13.828;2023-03-09T04:48:47;99264.03;;;-9.08;100.00
45525;BME280;31437;58.350;13.828;2023-03-09T04:51:13;99258.09;;;-9.07;100.00
45525;BME280;31437;58.350;13.828;2023-03-09T04:53:38;99259.78;;;-9.07;100.00
45525;BME280;31437;58.350;13.828;2023-03-09T04:56:03;99261.53;;;-9.05;100.00
45525;BME280;31437;58.350;13.828;2023-03-09T04:58:29;99259.81;;;-9.04;100.00
45525;BME280;31437;58.350;13.828;2023-03-09T05:00:55;99268.31;;;-9.02;100.00
45525;BME280;31437;58.350;13.828;2023-03-09T05:03:20;99261.53;;;-9.03;100.00
45525;BME280;31437;58.350;13.828;2023-03-09T05:05:46;99257.31;;;-9.03;100.00
45525;BME280;31437;58.350;13.828;2023-03-09T05:08:11;99262.38;;;-9.04;100.00
45525;BME280;31437;58.350;13.828;2023-03-09T05:10:37;99257.31;;;-9.01;100.00
45525;BME280;31437;58.350;13.828;2023-03-09T05:13:02;99261.56;;;-8.99;100.00
45525;BME280;31437;58.350;13.828;2023-03-09T05:15:27;99257.31;;;-9.01;100.00
45525;BME280;31437;58.350;13.828;2023-03-09T05:17:53;99254.78;;;-9.01;100.00
45525;BME280;31437;58.350;13.828;2023-03-09T05:20:18;99254.78;;;-9.01;100.00
45525;BME280;31437;58.350;13.828;2023-03-09T05:22:43;99250.50;;;-9.05;100.00
45525;BME280;31437;58.350;13.828;2023-03-09T05:25:09;99248.78;;;-9.06;100.00
45525;BME280;31437;58.350;13.828;2023-03-09T05:27:34;99244.53;;;-9.06;100.00
45525;BME280;31437;58.350;13.828;2023-03-09T05:30:00;99239.47;;;-9.07;100.00
45525;BME280;31437;58.350;13.828;2023-03-09T05:32:25;99233.53;;;-9.08;100.00
45525;BME280;31437;58.350;13.828;2023-03-09T05:34:50;99231.81;;;-9.09;100.00
45525;BME280;31437;58.350;13.828;2023-03-09T05:37:16;99236.88;;;-9.12;100.00
45525;BME280;31437;58.350;13.828;2023-03-09T05:39:41;99243.66;;;-9.12;100.00
45525;BME280;31437;58.350;13.828;2023-03-09T05:42:06;99233.47;;;-9.14;100.00
45525;BME280;31437;58.350;13.828;2023-03-09T05:44:32;99230.09;;;-9.13;100.00
45525;BME280;31437;58.350;13.828;2023-03-09T05:46:57;99232.66;;;-9.11;100.00
45525;BME280;31437;58.350;13.828;2023-03-09T05:49:23;99234.34;;;-9.09;100.00
45525;BME280;31437;58.350;13.828;2023-03-09T05:51:48;99235.25;;;-9.04;100.00
45525;BME280;31437;58.350;13.828;2023-03-09T05:54:13;99245.47;;;-8.99;100.00
45525;BME280;31437;58.350;13.828;2023-03-09T05:56:39;99238.69;;;-8.97;100.00
45525;BME280;31437;58.350;13.828;2023-03-09T05:59:04;99247.22;;;-8.92;100.00
45525;BME280;31437;58.350;13.828;2023-03-09T06:01:29;99242.19;;;-8.86;100.00
45525;BME280;31437;58.350;13.828;2023-03-09T06:03:55;99243.09;;;-8.81;100.00
45525;BME280;31437;58.350;13.828;2023-03-09T06:06:21;99239.72;;;-8.77;100.00
45525;BME280;31437;58.350;13.828;2023-03-09T06:08:46;99243.16;;;-8.73;100.00
45525;BME280;31437;58.350;13.828;2023-03-09T06:11:12;99243.19;;;-8.70;100.00
45525;BME280;31437;58.350;13.828;2023-03-09T06:13:37;99228.03;;;-8.58;100.00
45525;BME280;31437;58.350;13.828;2023-03-09T06:16:11;99245.19;;;-8.22;100.00
45525;BME280;31437;58.350;13.828;2023-03-09T06:18:37;99249.59;;;-7.99;100.00
45525;BME280;31437;58.350;13.828;2023-03-09T06:21:03;99241.06;;;-8.01;100.00
45525;BME280;31437;58.350;13.828;2023-03-09T06:23:29;99241.88;;;-8.11;100.00
45525;BME280;31437;58.350;13.828;2023-03-09T06:25:55;99245.19;;;-8.22;100.00
45525;BME280;31437;58.350;13.828;2023-03-09T06:28:20;99234.13;;;-8.28;100.00
45525;BME280;31437;58.350;13.828;2023-03-09T06:30:46;99244.28;;;-8.31;100.00
45525;BME280;31437;58.350;13.828;2023-03-09T06:33:11;99254.47;;;-8.30;100.00
45525;BME280;31437;58.350;13.828;2023-03-09T06:35:37;99251.09;;;-8.24;100.00
45525;BME280;31437;58.350;13.828;2023-03-09T06:38:02;99259.66;;;-8.13;100.00
45525;BME280;31437;58.350;13.828;2023-03-09T06:40:28;99257.19;;;-8.02;100.00
45525;BME280;31437;58.350;13.828;2023-03-09T06:42:53;99266.59;;;-7.86;100.00
45525;BME280;31437;58.350;13.828;2023-03-09T06:45:19;99264.22;;;-7.47;100.00
45525;BME280;31437;58.350;13.828;2023-03-09T06:47:46;99278.00;;;-6.72;100.00
45525;BME280;31437;58.350;13.828;2023-03-09T06:50:12;99292.41;;;-5.93;100.00
45525;BME280;31437;58.350;13.828;2023-03-09T06:52:37;99272.44;;;-4.94;100.00
45525;BME280;31437;58.350;13.828;2023-03-09T06:55:03;99293.94;;;-4.07;100.00
45525;BME280;31437;58.350;13.828;2023-03-09T06:57:28;99263.41;;;-3.47;100.00
45525;BME280;31437;58.350;13.828;2023-03-09T06:59:54;99235.16;;;-3.44;100.00
45525;BME280;31437;58.350;13.828;2023-03-09T07:02:19;99188.25;;;-3.52;100.00
45525;BME280;31437;58.350;13.828;2023-03-09T07:04:44;99141.31;;;-3.55;100.00
45525;BME280;31437;58.350;13.828;2023-03-09T07:07:11;99104.34;;;-4.04;100.00
45525;BME280;31437;58.350;13.828;2023-03-09T07:09:37;99086.09;;;-4.50;100.00
45525;BME280;31437;58.350;13.828;2023-03-09T07:12:02;99082.94;;;-4.77;100.00
45525;BME280;31437;58.350;13.828;2023-03-09T07:14:28;99090.59;;;-4.74;100.00
45525;BME280;31437;58.350;13.828;2023-03-09T07:16:54;99094.13;;;-4.84;100.00
45525;BME280;31437;58.350;13.828;2023-03-09T07:19:20;99105.84;;;-4.62;100.00
45525;BME280;31437;58.350;13.828;2023-03-09T07:21:46;99116.50;;;-4.20;100.00
45525;BME280;31437;58.350;13.828;2023-03-09T07:24:11;99131.22;;;-3.71;100.00
45525;BME280;31437;58.350;13.828;2023-03-09T07:26:36;99126.09;;;-3.10;100.00
45525;BME280;31437;58.350;13.828;2023-03-09T07:29:03;99123.84;;;-1.86;100.00
45525;BME280;31437;58.350;13.828;2023-03-09T07:31:28;99085.78;;;-0.61;100.00
45525;BME280;31437;58.350;13.828;2023-03-09T07:33:57;99023.06;;;0.29;100.00
45525;BME280;31437;58.350;13.828;2023-03-09T07:36:24;98905.78;;;0.39;100.00
45525;BME280;31437;58.350;13.828;2023-03-09T07:38:50;98832.72;;;-0.15;100.00
45525;BME280;31437;58.350;13.828;2023-03-09T07:41:16;98802.69;;;-0.99;100.00
45525;BME280;31437;58.350;13.828;2023-03-09T07:43:41;98816.84;;;-1.45;100.00
45525;BME280;31437;58.350;13.828;2023-03-09T07:46:09;98823.81;;;-1.83;100.00
45525;BME280;31437;58.350;13.828;2023-03-09T07:48:34;98852.09;;;-2.17;100.00
45525;BME280;31437;58.350;13.828;2023-03-09T07:51:03;98887.09;;;-2.50;100.00
45525;BME280;31437;58.350;13.828;2023-03-09T07:53:35;98908.53;;;-2.93;100.00
45525;BME280;31437;58.350;13.828;2023-03-09T07:56:02;98932.31;;;-3.30;100.00
45525;BME280;31437;58.350;13.828;2023-03-09T07:58:29;98962.53;;;-3.46;100.00
45525;BME280;31437;58.350;13.828;2023-03-09T08:00:54;99006.31;;;-3.07;100.00
45525;BME280;31437;58.350;13.828;2023-03-09T08:03:20;99019.97;;;-2.18;100.00
45525;BME280;31437;58.350;13.828;2023-03-09T08:05:45;99014.69;;;-1.01;100.00
45525;BME280;31437;58.350;13.828;2023-03-09T08:08:12;98952.44;;;-0.24;100.00
45525;BME280;31437;58.350;13.828;2023-03-09T08:10:37;98879.69;;;0.48;100.00
45525;BME280;31437;58.350;13.828;2023-03-09T08:13:02;98800.41;;;0.77;100.00
45525;BME280;31437;58.350;13.828;2023-03-09T08:15:28;98727.09;;;0.09;100.00
45525;BME280;31437;58.350;13.828;2023-03-09T08:17:54;98724.44;;;-0.40;100.00
45525;BME280;31437;58.350;13.828;2023-03-09T08:20:19;98743.94;;;-0.86;100.00
45525;BME280;31437;58.350;13.828;2023-03-09T08:22:44;98789.53;;;-1.49;100.00
45525;BME280;31437;58.350;13.828;2023-03-09T08:25:10;98827.44;;;-1.90;100.00
45525;BME280;31437;58.350;13.828;2023-03-09T08:27:47;98900.00;;;-2.14;100.00
45525;BME280;31437;58.350;13.828;2023-03-09T08:32:51;98977.47;;;-2.33;100.00
45525;BME280;31437;58.350;13.828;2023-03-09T08:35:17;99005.78;;;-2.34;100.00
45525;BME280;31437;58.350;13.828;2023-03-09T08:37:43;99032.94;;;-2.22;100.00
45525;BME280;31437;58.350;13.828;2023-03-09T08:40:08;99057.97;;;-1.92;100.00
45525;BME280;31437;58.350;13.828;2023-03-09T08:42:35;99062.47;;;-1.61;100.00
45525;BME280;31437;58.350;13.828;2023-03-09T08:45:01;99054.34;;;-1.44;100.00
45525;BME280;31437;58.350;13.828;2023-03-09T08:47:26;99047.56;;;-1.47;100.00
45525;BME280;31437;58.350;13.828;2023-03-09T08:49:52;99052.47;;;-1.73;100.00
45525;BME280;31437;58.350;13.828;2023-03-09T08:52:17;99065.81;;;-1.96;100.00
45525;BME280;31437;58.350;13.828;2023-03-09T08:54:43;99087.22;;;-1.96;100.00
45525;BME280;31437;58.350;13.828;2023-03-09T08:57:08;99104.56;;;-2.06;100.00
45525;BME280;31437;58.350;13.828;2023-03-09T08:59:33;99109.00;;;-2.15;100.00
45525;BME280;31437;58.350;13.828;2023-03-09T09:01:59;99109.97;;;-2.21;100.00
45525;BME280;31437;58.350;13.828;2023-03-09T09:04:25;99048.41;;;-2.25;100.00
45525;BME280;31437;58.350;13.828;2023-03-09T09:06:50;99015.88;;;-2.26;100.00
45525;BME280;31437;58.350;13.828;2023-03-09T09:09:15;98970.50;;;-2.26;100.00
45525;BME280;31437;58.350;13.828;2023-03-09T09:11:40;98960.88;;;-2.18;100.00
45525;BME280;31437;58.350;13.828;2023-03-09T09:14:06;98945.41;;;-2.15;100.00
45525;BME280;31437;58.350;13.828;2023-03-09T09:16:34;98952.25;;;-2.14;100.00
45525;BME280;31437;58.350;13.828;2023-03-09T09:18:59;98966.00;;;-2.16;100.00
45525;BME280;31437;58.350;13.828;2023-03-09T09:21:25;98974.72;;;-2.23;100.00
45525;BME280;31437;58.350;13.828;2023-03-09T09:23:53;98991.75;;;-2.19;100.00
45525;BME280;31437;58.350;13.828;2023-03-09T09:26:18;99003.66;;;-2.15;100.00
45525;BME280;31437;58.350;13.828;2023-03-09T09:28:44;99001.75;;;-2.06;100.00
45525;BME280;31437;58.350;13.828;2023-03-09T09:31:10;98987.94;;;-2.01;100.00
45525;BME280;31437;58.350;13.828;2023-03-09T09:33:37;98975.06;;;-2.00;100.00
45525;BME280;31437;58.350;13.828;2023-03-09T09:36:06;98970.78;;;-2.01;100.00
45525;BME280;31437;58.350;13.828;2023-03-09T09:38:34;98974.19;;;-2.00;100.00
45525;BME280;31437;58.350;13.828;2023-03-09T09:41:02;98990.44;;;-1.98;100.00
45525;BME280;31437;58.350;13.828;2023-03-09T09:43:28;98999.25;;;-2.09;100.00
45525;BME280;31437;58.350;13.828;2023-03-09T09:45:54;99021.81;;;-2.23;100.00
45525;BME280;31437;58.350;13.828;2023-03-09T09:48:21;99067.38;;;-2.33;100.00
45525;BME280;31437;58.350;13.828;2023-03-09T09:55:59;99223.09;;;-2.24;100.00
45525;BME280;31437;58.350;13.828;2023-03-09T09:58:34;99248.63;;;-2.15;100.00
45525;BME280;31437;58.350;13.828;2023-03-09T10:01:04;99270.22;;;-2.23;100.00
45525;BME280;31437;58.350;13.828;2023-03-09T10:03:35;99307.06;;;-2.26;100.00
45525;BME280;31437;58.350;13.828;2023-03-09T10:06:16;99338.66;;;-2.21;100.00
45525;BME280;31437;58.350;13.828;2023-03-09T10:13:38;99431.28;;;-2.30;100.00
45525;BME280;31437;58.350;13.828;2023-03-09T10:16:06;99445.72;;;-2.21;100.00
45525;BME280;31437;58.350;13.828;2023-03-09T10:18:54;99453.22;;;-2.06;100.00
45525;BME280;31437;58.350;13.828;2023-03-09T10:21:41;99460.78;;;-1.94;100.00
45525;BME280;31437;58.350;13.828;2023-03-09T10:24:28;99470.88;;;-1.83;100.00
45525;BME280;31437;58.350;13.828;2023-03-09T10:27:02;99467.06;;;-1.57;100.00
45525;BME280;31437;58.350;13.828;2023-03-09T10:31:57;99469.41;;;-1.45;100.00
45525;BME280;31437;58.350;13.828;2023-03-09T10:50:17;99477.06;;;-0.07;100.00
45525;BME280;31437;58.350;13.828;2023-03-09T10:52:42;99481.00;;;0.09;100.00
45525;BME280;31437;58.350;13.828;2023-03-09T10:55:43;99477.44;;;0.13;100.00
45525;BME280;31437;58.350;13.828;2023-03-09T10:58:01;99482.47;;;0.19;100.00
45525;BME280;31437;58.350;13.828;2023-03-09T11:00:27;99476.50;;;0.17;100.00
45525;BME280;31437;58.350;13.828;2023-03-09T11:02:53;99473.25;;;0.09;100.00
45525;BME280;31437;58.350;13.828;2023-03-09T11:05:20;99458.47;;;0.16;100.00
45525;BME280;31437;58.350;13.828;2023-03-09T11:07:59;99455.72;;;0.23;100.00
45525;BME280;31437;58.350;13.828;2023-03-09T11:10:28;99466.91;;;0.24;100.00
45525;BME280;31437;58.350;13.828;2023-03-09T11:12:54;99457.81;;;0.08;100.00
45525;BME280;31437;58.350;13.828;2023-03-09T11:15:33;99455.72;;;-0.14;100.00
45525;BME280;31437;58.350;13.828;2023-03-09T11:18:00;99453.38;;;-0.25;100.00
45525;BME280;31437;58.350;13.828;2023-03-09T11:25:59;99456.84;;;-0.26;100.00
45525;BME280;31437;58.350;13.828;2023-03-09T11:31:06;99462.25;;;0.01;100.00
45525;BME280;31437;58.350;13.828;2023-03-09T11:33:35;99466.66;;;-0.03;100.00
45525;BME280;31437;58.350;13.828;2023-03-09T11:36:00;99470.34;;;-0.14;100.00
45525;BME280;31437;58.350;13.828;2023-03-09T11:38:26;99468.84;;;-0.25;100.00
45525;BME280;31437;58.350;13.828;2023-03-09T11:41:27;99455.53;;;-0.45;100.00
45525;BME280;31437;58.350;13.828;2023-03-09T11:43:46;99472.84;;;-0.53;100.00
45525;BME280;31437;58.350;13.828;2023-03-09T11:46:14;99459.44;;;-0.67;100.00
45525;BME280;31437;58.350;13.828;2023-03-09T11:48:41;99461.25;;;-0.73;100.00
45525;BME280;31437;58.350;13.828;2023-03-09T11:51:25;99458.47;;;-0.63;100.00
45525;BME280;31437;58.350;13.828;2023-03-09T11:53:59;99450.81;;;-0.66;100.00
45525;BME280;31437;58.350;13.828;2023-03-09T11:56:27;99449.84;;;-0.61;100.00
45525;BME280;31437;58.350;13.828;2023-03-09T12:04:11;99449.41;;;-0.83;100.00
45525;BME280;31437;58.350;13.828;2023-03-09T12:09:09;99449.97;;;-1.12;100.00
45525;BME280;31437;58.350;13.828;2023-03-09T12:11:38;99432.00;;;-1.15;100.00
45525;BME280;31437;58.350;13.828;2023-03-09T12:14:09;99433.66;;;-1.12;100.00
45525;BME280;31437;58.350;13.828;2023-03-09T12:16:38;99432.63;;;-1.02;100.00
45525;BME280;31437;58.350;13.828;2023-03-09T12:19:11;99417.91;;;-0.96;100.00
45525;BME280;31437;58.350;13.828;2023-03-09T12:21:41;99420.19;;;-0.80;100.00
45525;BME280;31437;58.350;13.828;2023-03-09T12:24:18;99420.09;;;-0.76;100.00
45525;BME280;31437;58.350;13.828;2023-03-09T12:26:44;99424.28;;;-0.70;100.00
45525;BME280;31437;58.350;13.828;2023-03-09T12:31:38;99439.16;;;-0.86;100.00
45525;BME280;31437;58.350;13.828;2023-03-09T12:36:37;99456.94;;;-1.19;100.00
45525;BME280;31437;58.350;13.828;2023-03-09T12:49:54;99474.22;;;-1.78;100.00
45525;BME280;31437;58.350;13.828;2023-03-09T12:54:55;99471.66;;;-2.38;100.00
45525;BME280;31437;58.350;13.828;2023-03-09T12:57:21;99480.59;;;-2.68;100.00
45525;BME280;31437;58.350;13.828;2023-03-09T12:59:46;99484.28;;;-2.92;100.00
45525;BME280;31437;58.350;13.828;2023-03-09T13:02:32;99471.63;;;-3.08;100.00
45525;BME280;31437;58.350;13.828;2023-03-09T13:07:58;99464.41;;;-3.60;100.00
45525;BME280;31437;58.350;13.828;2023-03-09T13:10:28;99479.03;;;-3.74;100.00
45525;BME280;31437;58.350;13.828;2023-03-09T13:12:55;99464.63;;;-3.91;100.00
45525;BME280;31437;58.350;13.828;2023-03-09T13:15:22;99468.13;;;-3.99;100.00
45525;BME280;31437;58.350;13.828;2023-03-09T13:18:10;99474.09;;;-4.00;100.00
45525;BME280;31437;58.350;13.828;2023-03-09T13:20:37;99475.84;;;-4.05;100.00
45525;BME280;31437;58.350;13.828;2023-03-09T13:23:08;99474.16;;;-4.08;100.00
45525;BME280;31437;58.350;13.828;2023-03-09T13:30:49;99466.59;;;-4.26;100.00
45525;BME280;31437;58.350;13.828;2023-03-09T13:35:48;99443.56;;;-4.34;100.00
45525;BME280;31437;58.350;13.828;2023-03-09T13:48:56;99475.09;;;-4.23;100.00
45525;BME280;31437;58.350;13.828;2023-03-09T13:53:49;99477.59;;;-4.15;100.00
45525;BME280;31437;58.350;13.828;2023-03-09T13:56:14;99477.56;;;-4.09;100.00
45525;BME280;31437;58.350;13.828;2023-03-09T13:58:41;99487.78;;;-4.09;100.00
45525;BME280;31437;58.350;13.828;2023-03-09T14:01:17;99486.91;;;-4.03;100.00
45525;BME280;31437;58.350;13.828;2023-03-09T14:03:46;99479.19;;;-3.96;100.00
45525;BME280;31437;58.350;13.828;2023-03-09T14:06:19;99478.28;;;-3.92;100.00
45525;BME280;31437;58.350;13.828;2023-03-09T14:08:47;99488.50;;;-3.85;100.00
45525;BME280;31437;58.350;13.828;2023-03-09T14:11:22;99477.34;;;-3.77;100.00
45525;BME280;31437;58.350;13.828;2023-03-09T14:13:51;99489.25;;;-3.67;100.00